Time;durP1;ratioP1;P1;durP2;ratioP2;P2;SDS_P1;SDS_P2;PMS_P1;PMS_P2;Temp;Humidity;BMP_temperature;BMP_pressure;BME280_temperature;BME280_humidity;BME280_pressure;Samples;Min_cycle;Max_cycle;Signal;HPM_P1;HPM_P2
2023/04/21 00:02:38;;;;;;;8.52;6.30;;;;;;;;;;5120513;28;20030;-72
2023/04/21 00:05:23;;;;;;;8.32;6.65;;;;;;;;;;5134581;27;20047;-71
2023/04/21 00:08:09;;;;;;;10.38;5.95;;;;;;;;;;5134094;27;20047;-72
2023/04/21 00:10:55;;;;;;;10.55;6.90;;;;;;;;;;5135920;27;20022;-72
2023/04/21 00:13:40;;;;;;;8.15;6.20;;;;;;;;;;5134199;27;20182;-71
2023/04/21 00:16:26;;;;;;;8.25;5.68;;;;;;;;;;5135643;27;20019;-71
2023/04/21 00:19:13;;;;;;;8.38;5.63;;;;;;;;;;5134518;28;20094;-71
2023/04/21 00:22:00;;;;;;;7.75;5.90;;;;;;;;;;5134141;28;20088;-71
2023/04/21 00:24:45;;;;;;;7.95;5.65;;;;;;;;;;5134398;28;20033;-72
2023/04/21 00:27:31;;;;;;;8.52;6.10;;;;;;;;;;5134194;28;20388;-71
2023/04/21 00:30:16;;;;;;;7.68;5.97;;;;;;;;;;5134166;28;20051;-72
2023/04/21 00:33:02;;;;;;;9.23;5.82;;;;;;;;;;5133993;28;20026;-71
2023/04/21 00:35:48;;;;;;;7.70;5.88;;;;;;;;;;5134185;28;20011;-72
2023/04/21 00:38:33;;;;;;;8.38;5.60;;;;;;;;;;5136121;27;20181;-72
2023/04/21 00:41:19;;;;;;;11.18;6.38;;;;;;;;;;5139356;27;20019;-72
2023/04/21 00:44:05;;;;;;;7.38;6.35;;;;;;;;;;5138163;27;20055;-72
2023/04/21 00:46:51;;;;;;;8.27;6.07;;;;;;;;;;5125241;27;20027;-72
2023/04/21 00:49:36;;;;;;;7.32;6.15;;;;;;;;;;5138061;27;20041;-73
2023/04/21 00:52:22;;;;;;;7.90;6.15;;;;;;;;;;5137949;27;20011;-71
2023/04/21 00:55:08;;;;;;;9.65;6.30;;;;;;;;;;5137735;27;20031;-72
2023/04/21 00:57:54;;;;;;;8.82;6.43;;;;;;;;;;5138578;27;20404;-71
2023/04/21 01:00:41;;;;;;;7.53;6.22;;;;;;;;;;5137840;27;20042;-72
2023/04/21 01:03:27;;;;;;;7.38;5.70;;;;;;;;;;5137625;27;20034;-71
2023/04/21 01:06:13;;;;;;;6.57;5.78;;;;;;;;;;5137747;27;20019;-71
2023/04/21 01:09:03;;;;;;;8.93;5.47;;;;;;;;;;5137121;27;20035;-71
2023/04/21 01:12:02;;;;;;;7.38;5.72;;;;;;;;;;5123088;27;20106;-71
2023/04/21 01:14:48;;;;;;;8.18;6.63;;;;;;;;;;5138213;27;20030;-71
2023/04/21 01:17:37;;;;;;;7.55;5.95;;;;;;;;;;5138418;27;20070;-72
2023/04/21 01:20:22;;;;;;;7.80;6.32;;;;;;;;;;5137987;27;20026;-72
2023/04/21 01:23:08;;;;;;;8.80;6.75;;;;;;;;;;5137069;27;20019;-72
2023/04/21 01:25:54;;;;;;;12.15;6.82;;;;;;;;;;5138417;27;20439;-72
2023/04/21 01:28:40;;;;;;;11.73;7.35;;;;;;;;;;5137419;27;20355;-72
2023/04/21 01:31:26;;;;;;;9.85;7.82;;;;;;;;;;5137412;27;20034;-72
2023/04/21 01:34:11;;;;;;;11.80;7.70;;;;;;;;;;5137114;27;20379;-72
2023/04/21 01:36:57;;;;;;;11.93;7.75;;;;;;;;;;5137471;27;20110;-72
2023/04/21 01:39:44;;;;;;;13.27;8.32;;;;;;;;;;5136792;27;20019;-74
2023/04/21 01:42:30;;;;;;;10.55;8.23;;;;;;;;;;5137128;27;20029;-73
2023/04/21 01:45:16;;;;;;;9.52;8.18;;;;;;;;;;5137256;27;20069;-72
2023/04/21 01:48:01;;;;;;;12.75;9.10;;;;;;;;;;5136924;27;20022;-72
2023/04/21 01:50:47;;;;;;;14.57;9.75;;;;;;;;;;5136001;27;20072;-72
2023/04/21 01:53:33;;;;;;;12.52;8.65;;;;;;;;;;5139052;27;20114;-72
2023/04/21 01:56:19;;;;;;;10.85;9.20;;;;;;;;;;5140174;27;20103;-72
2023/04/21 01:59:04;;;;;;;14.25;8.82;;;;;;;;;;5144747;27;20015;-73
2023/04/21 02:01:50;;;;;;;10.85;8.98;;;;;;;;;;5123887;27;20026;-72
2023/04/21 02:04:35;;;;;;;11.15;9.38;;;;;;;;;;5136488;27;20019;-73
2023/04/21 02:07:21;;;;;;;15.18;10.25;;;;;;;;;;5136626;27;20395;-72
2023/04/21 02:10:07;;;;;;;14.32;9.25;;;;;;;;;;5137548;27;20046;-72
2023/04/21 02:12:52;;;;;;;13.32;9.48;;;;;;;;;;5136862;27;20020;-72
2023/04/21 02:15:38;;;;;;;11.88;9.68;;;;;;;;;;5136465;27;20059;-73
2023/04/21 02:18:24;;;;;;;11.95;9.68;;;;;;;;;;5136442;27;20102;-73
2023/04/21 02:21:10;;;;;;;12.50;9.80;;;;;;;;;;5136295;27;20035;-74
2023/04/21 02:23:55;;;;;;;12.32;10.23;;;;;;;;;;5135836;27;20513;-73
2023/04/21 02:26:41;;;;;;;15.60;10.35;;;;;;;;;;5136728;27;20024;-73
2023/04/21 02:29:27;;;;;;;13.77;9.07;;;;;;;;;;5137190;27;20079;-72
2023/04/21 02:32:12;;;;;;;14.02;9.85;;;;;;;;;;5139030;27;20048;-74
2023/04/21 02:34:58;;;;;;;13.98;10.15;;;;;;;;;;5151743;27;20034;-73
2023/04/21 02:37:44;;;;;;;15.48;10.70;;;;;;;;;;5137275;27;20019;-73
2023/04/21 02:40:29;;;;;;;15.13;9.95;;;;;;;;;;5121043;27;20098;-73
2023/04/21 02:43:17;;;;;;;14.65;10.68;;;;;;;;;;5135764;27;20151;-72
2023/04/21 02:46:06;;;;;;;12.35;10.48;;;;;;;;;;5120869;27;20050;-71
2023/04/21 02:48:52;;;;;;;16.08;11.02;;;;;;;;;;5121532;27;20355;-72
2023/04/21 02:51:37;;;;;;;14.43;11.07;;;;;;;;;;5136978;27;20024;-72
2023/04/21 02:54:23;;;;;;;13.43;11.00;;;;;;;;;;5135625;27;20015;-72
2023/04/21 02:57:08;;;;;;;16.85;11.70;;;;;;;;;;5136975;27;20022;-72
2023/04/21 02:59:54;;;;;;;15.60;11.75;;;;;;;;;;5137381;27;20024;-72
2023/04/21 03:02:40;;;;;;;15.27;11.82;;;;;;;;;;5134579;27;20026;-73
2023/04/21 03:05:25;;;;;;;18.58;13.55;;;;;;;;;;5137693;27;20397;-73
2023/04/21 03:08:11;;;;;;;16.90;12.98;;;;;;;;;;5135697;27;20475;-73
2023/04/21 03:10:57;;;;;;;14.38;12.07;;;;;;;;;;5134284;27;20439;-72
2023/04/21 03:13:42;;;;;;;15.48;11.80;;;;;;;;;;5121465;27;20027;-72
2023/04/21 03:16:28;;;;;;;17.00;12.50;;;;;;;;;;5121719;27;20431;-73
2023/04/21 03:19:14;;;;;;;17.70;12.82;;;;;;;;;;5135224;27;20023;-72
2023/04/21 03:21:59;;;;;;;18.42;13.52;;;;;;;;;;5136128;27;20019;-72
2023/04/21 03:24:45;;;;;;;20.38;14.30;;;;;;;;;;5119809;27;20072;-72
2023/04/21 03:27:32;;;;;;;19.17;14.48;;;;;;;;;;5135929;27;20007;-73
2023/04/21 03:30:17;;;;;;;17.83;13.70;;;;;;;;;;5135358;27;20047;-73
2023/04/21 03:33:03;;;;;;;20.35;13.63;;;;;;;;;;5120196;27;20026;-73
2023/04/21 03:35:49;;;;;;;20.55;13.93;;;;;;;;;;5134197;27;20035;-73
2023/04/21 03:38:35;;;;;;;24.55;17.95;;;;;;;;;;5134733;27;20035;-72
2023/04/21 03:41:20;;;;;;;28.17;20.50;;;;;;;;;;5135458;27;20019;-73
2023/04/21 03:44:06;;;;;;;21.15;16.52;;;;;;;;;;5135097;27;20474;-73
2023/04/21 03:46:52;;;;;;;33.10;24.35;;;;;;;;;;5135516;27;20043;-73
2023/04/21 03:49:38;;;;;;;32.28;23.70;;;;;;;;;;5135002;27;20026;-73
2023/04/21 03:52:23;;;;;;;26.83;19.58;;;;;;;;;;5134439;27;20079;-74
2023/04/21 03:55:10;;;;;;;21.80;17.60;;;;;;;;;;5134848;27;20051;-73
2023/04/21 03:57:56;;;;;;;24.92;18.40;;;;;;;;;;5120243;27;20029;-73
2023/04/21 04:00:41;;;;;;;21.67;16.60;;;;;;;;;;5134982;27;20038;-73
2023/04/21 04:03:27;;;;;;;23.25;16.73;;;;;;;;;;5134502;27;20023;-74
2023/04/21 04:06:13;;;;;;;25.88;17.67;;;;;;;;;;5133927;27;20367;-74
2023/04/21 04:09:01;;;;;;;23.10;17.45;;;;;;;;;;5099413;28;20105;-73
2023/04/21 04:11:46;;;;;;;25.15;16.67;;;;;;;;;;5100932;28;20489;-74
2023/04/21 04:14:32;;;;;;;20.17;15.68;;;;;;;;;;5114519;28;20027;-73
2023/04/21 04:17:17;;;;;;;19.73;14.85;;;;;;;;;;5116110;28;20343;-73
2023/04/21 04:20:05;;;;;;;20.60;15.32;;;;;;;;;;5123457;28;20077;-72
2023/04/21 04:22:50;;;;;;;20.48;15.35;;;;;;;;;;5103683;28;20412;-73
2023/04/21 04:25:38;;;;;;;20.60;15.77;;;;;;;;;;5119594;28;20035;-73
2023/04/21 04:28:23;;;;;;;22.20;17.08;;;;;;;;;;5101084;28;20084;-73
2023/04/21 04:31:09;;;;;;;19.27;14.75;;;;;;;;;;5100991;28;20070;-74
2023/04/21 04:33:55;;;;;;;17.63;13.80;;;;;;;;;;5114523;28;20027;-73
2023/04/21 04:36:44;;;;;;;17.05;12.75;;;;;;;;;;5100520;28;20092;-73
2023/04/21 04:39:31;;;;;;;16.60;12.77;;;;;;;;;;5100481;28;20439;-74
2023/04/21 04:42:19;;;;;;;15.05;11.13;;;;;;;;;;5115449;28;20092;-74
2023/04/21 04:45:07;;;;;;;15.05;10.25;;;;;;;;;;5113661;28;20027;-75
2023/04/21 04:47:52;;;;;;;10.68;9.25;;;;;;;;;;5114098;28;20024;-73
2023/04/21 04:50:38;;;;;;;15.15;9.48;;;;;;;;;;5115827;28;20058;-74
2023/04/21 04:53:23;;;;;;;13.75;9.48;;;;;;;;;;5115532;28;20351;-74
2023/04/21 04:56:09;;;;;;;12.43;9.63;;;;;;;;;;5114608;28;20080;-74
2023/04/21 04:58:54;;;;;;;11.60;9.10;;;;;;;;;;5114690;28;20020;-73
2023/04/21 05:01:40;;;;;;;10.65;8.88;;;;;;;;;;5114329;28;20011;-73
2023/04/21 05:04:26;;;;;;;12.25;9.48;;;;;;;;;;5115660;28;20027;-73
2023/04/21 05:07:11;;;;;;;11.32;9.77;;;;;;;;;;5120862;28;20529;-72
2023/04/21 05:09:57;;;;;;;13.10;10.70;;;;;;;;;;5133762;28;20026;-73
2023/04/21 05:12:43;;;;;;;15.13;11.63;;;;;;;;;;5134544;28;20083;-73
2023/04/21 05:15:28;;;;;;;13.07;10.25;;;;;;;;;;5134648;28;20019;-74
2023/04/21 05:18:14;;;;;;;14.15;10.05;;;;;;;;;;5134634;28;20019;-73
2023/04/21 05:20:59;;;;;;;11.52;10.10;;;;;;;;;;5133868;28;20023;-73
2023/04/21 05:23:45;;;;;;;12.85;10.45;;;;;;;;;;5134461;27;20084;-72
2023/04/21 05:26:30;;;;;;;11.77;10.00;;;;;;;;;;5122316;27;20018;-73
2023/04/21 05:29:16;;;;;;;14.00;10.50;;;;;;;;;;5137570;27;20011;-72
2023/04/21 05:32:02;;;;;;;13.20;9.80;;;;;;;;;;5136967;27;20102;-72
2023/04/21 05:34:47;;;;;;;11.95;9.13;;;;;;;;;;5137841;27;20034;-72
2023/04/21 05:37:33;;;;;;;12.23;9.32;;;;;;;;;;5137363;27;20023;-71
2023/04/21 05:40:19;;;;;;;11.52;8.88;;;;;;;;;;5157992;27;20090;-71
2023/04/21 05:43:04;;;;;;;11.30;9.20;;;;;;;;;;5139914;27;20031;-71
2023/04/21 05:45:50;;;;;;;9.23;8.18;;;;;;;;;;5123292;27;20045;-72
2023/04/21 05:48:35;;;;;;;8.48;7.50;;;;;;;;;;5122574;27;20064;-71
2023/04/21 05:51:21;;;;;;;11.68;8.90;;;;;;;;;;5137631;27;20015;-71
2023/04/21 05:54:07;;;;;;;14.77;11.75;;;;;;;;;;5122120;27;20070;-71
2023/04/21 05:56:52;;;;;;;12.30;9.93;;;;;;;;;;5138130;27;20401;-71
2023/04/21 05:59:38;;;;;;;11.18;9.40;;;;;;;;;;5123316;27;20419;-72
2023/04/21 06:02:23;;;;;;;14.32;9.68;;;;;;;;;;5122765;27;20032;-70
2023/04/21 06:05:09;;;;;;;10.63;8.93;;;;;;;;;;5136329;27;20392;-71
2023/04/21 06:07:55;;;;;;;11.68;9.93;;;;;;;;;;5137692;27;20364;-71
2023/04/21 06:10:40;;;;;;;14.02;9.73;;;;;;;;;;5151322;27;20130;-71
2023/04/21 06:13:26;;;;;;;12.43;10.18;;;;;;;;;;5136987;27;20016;-71
2023/04/21 06:16:12;;;;;;;13.48;9.85;;;;;;;;;;5135752;27;20030;-71
2023/04/21 06:18:57;;;;;;;16.08;10.93;;;;;;;;;;5136349;27;20391;-71
2023/04/21 06:21:43;;;;;;;14.02;10.27;;;;;;;;;;5135698;27;20098;-70
2023/04/21 06:24:31;;;;;;;11.88;9.00;;;;;;;;;;5136988;27;20019;-71
2023/04/21 06:27:17;;;;;;;12.13;9.45;;;;;;;;;;5136311;27;20019;-72
2023/04/21 06:30:03;;;;;;;11.57;9.60;;;;;;;;;;5136298;27;20051;-72
2023/04/21 06:32:48;;;;;;;13.20;11.15;;;;;;;;;;5140789;27;20026;-73
2023/04/21 06:35:34;;;;;;;15.18;10.95;;;;;;;;;;5136511;27;20327;-72
2023/04/21 06:38:20;;;;;;;14.73;11.23;;;;;;;;;;5136626;27;20443;-72
2023/04/21 06:41:06;;;;;;;16.48;11.85;;;;;;;;;;5135963;27;20055;-72
2023/04/21 06:43:51;;;;;;;16.08;12.82;;;;;;;;;;5121575;27;20023;-72
2023/04/21 06:46:37;;;;;;;21.60;14.45;;;;;;;;;;5121632;27;20030;-71
2023/04/21 06:49:22;;;;;;;19.30;14.02;;;;;;;;;;5137381;27;20011;-71
2023/04/21 06:52:08;;;;;;;23.85;14.70;;;;;;;;;;5136264;27;20024;-71
2023/04/21 06:54:53;;;;;;;19.42;14.15;;;;;;;;;;5136391;27;20026;-72
2023/04/21 06:57:39;;;;;;;20.92;13.85;;;;;;;;;;5136457;27;20106;-72
2023/04/21 07:00:25;;;;;;;23.85;15.27;;;;;;;;;;5136454;27;20027;-72
2023/04/21 07:03:11;;;;;;;18.15;13.25;;;;;;;;;;5137029;27;20019;-72
2023/04/21 07:05:57;;;;;;;18.67;13.07;;;;;;;;;;5135205;27;20024;-72
2023/04/21 07:08:42;;;;;;;17.13;11.32;;;;;;;;;;5135962;27;20177;-72
2023/04/21 07:11:28;;;;;;;14.30;9.38;;;;;;;;;;5137425;27;20019;-73
2023/04/21 07:14:14;;;;;;;15.93;9.40;;;;;;;;;;5120625;27;20047;-71
2023/04/21 07:16:59;;;;;;;16.55;8.75;;;;;;;;;;5134792;27;20023;-72
2023/04/21 07:19:45;;;;;;;12.05;8.85;;;;;;;;;;5120774;27;20035;-71
2023/04/21 07:22:30;;;;;;;14.45;8.40;;;;;;;;;;5135337;27;20020;-72
2023/04/21 07:25:16;;;;;;;16.08;8.10;;;;;;;;;;5134546;27;20443;-75
2023/04/21 07:28:02;;;;;;;12.77;7.10;;;;;;;;;;5135781;27;20019;-75
2023/04/21 07:30:48;;;;;;;11.80;6.85;;;;;;;;;;5135450;27;20023;-74
2023/04/21 07:33:33;;;;;;;9.50;6.40;;;;;;;;;;5121532;27;20478;-74
2023/04/21 07:36:19;;;;;;;9.73;7.00;;;;;;;;;;5134627;27;20355;-74
2023/04/21 07:39:05;;;;;;;11.60;6.78;;;;;;;;;;5120158;27;20060;-72
2023/04/21 07:41:51;;;;;;;12.43;7.57;;;;;;;;;;5120559;27;20019;-72
2023/04/21 07:44:36;;;;;;;10.63;6.95;;;;;;;;;;5135144;27;20019;-73
2023/04/21 07:47:22;;;;;;;14.70;6.85;;;;;;;;;;5134173;27;20419;-72
2023/04/21 07:50:08;;;;;;;15.52;7.40;;;;;;;;;;5134549;27;20054;-74
2023/04/21 07:52:53;;;;;;;18.38;7.43;;;;;;;;;;5135708;27;20102;-73
2023/04/21 07:55:39;;;;;;;13.48;7.18;;;;;;;;;;5134344;27;20015;-73
2023/04/21 07:58:24;;;;;;;10.02;6.10;;;;;;;;;;5134402;27;20039;-72
2023/04/21 08:01:10;;;;;;;11.70;5.95;;;;;;;;;;5119255;27;20047;-71
2023/04/21 08:03:56;;;;;;;15.20;5.63;;;;;;;;;;5120200;27;20462;-72
2023/04/21 08:06:41;;;;;;;7.72;4.60;;;;;;;;;;5134050;27;20023;-72
2023/04/21 08:09:27;;;;;;;10.25;4.32;;;;;;;;;;5134607;27;20042;-71
2023/04/21 08:12:13;;;;;;;8.73;4.63;;;;;;;;;;5120368;28;20023;-72
2023/04/21 08:14:58;;;;;;;10.57;5.05;;;;;;;;;;5135124;27;20027;-72
2023/04/21 08:17:44;;;;;;;14.20;4.50;;;;;;;;;;5134467;27;20015;-72
2023/04/21 08:20:33;;;;;;;10.90;4.57;;;;;;;;;;5135040;28;20034;-71
2023/04/21 08:23:19;;;;;;;10.32;5.03;;;;;;;;;;5120442;28;20366;-71
2023/04/21 08:26:04;;;;;;;11.52;4.30;;;;;;;;;;5120450;28;20027;-71
2023/04/21 08:28:51;;;;;;;13.80;4.38;;;;;;;;;;5133998;28;20018;-71
2023/04/21 08:31:36;;;;;;;13.30;4.38;;;;;;;;;;5134913;28;20328;-71
2023/04/21 08:34:22;;;;;;;15.10;5.13;;;;;;;;;;5135611;28;20084;-71
2023/04/21 08:37:08;;;;;;;11.30;4.00;;;;;;;;;;5133727;28;20022;-70
2023/04/21 08:39:53;;;;;;;8.00;3.33;;;;;;;;;;5134169;28;20034;-70
2023/04/21 08:42:39;;;;;;;15.88;4.13;;;;;;;;;;5119300;28;20023;-70
2023/04/21 08:45:26;;;;;;;6.93;3.63;;;;;;;;;;5133505;28;20439;-70
2023/04/21 08:48:17;;;;;;;8.65;3.30;;;;;;;;;;5133688;28;20018;-69
2023/04/21 08:51:03;;;;;;;9.00;3.47;;;;;;;;;;5133595;28;20019;-70
2023/04/21 08:53:49;;;;;;;9.20;3.17;;;;;;;;;;5134097;28;20051;-71
2023/04/21 08:56:35;;;;;;;18.40;3.67;;;;;;;;;;5120073;28;20023;-71
2023/04/21 08:59:23;;;;;;;9.68;3.72;;;;;;;;;;5136397;27;20340;-71
2023/04/21 09:02:09;;;;;;;10.13;3.40;;;;;;;;;;5125016;27;20033;-71
2023/04/21 09:04:58;;;;;;;6.13;3.25;;;;;;;;;;5138502;27;20380;-72
2023/04/21 09:07:44;;;;;;;7.68;3.10;;;;;;;;;;5137619;27;20039;-70
2023/04/21 09:10:30;;;;;;;8.60;3.70;;;;;;;;;;5123737;27;20353;-70
2023/04/21 09:13:17;;;;;;;11.18;3.63;;;;;;;;;;5139267;27;20019;-71
2023/04/21 09:16:04;;;;;;;7.45;3.35;;;;;;;;;;5123491;27;20034;-71
2023/04/21 09:18:50;;;;;;;10.05;2.75;;;;;;;;;;5122616;27;20446;-70
2023/04/21 09:21:35;;;;;;;12.15;3.20;;;;;;;;;;5138108;27;20027;-70
2023/04/21 09:24:23;;;;;;;13.57;3.03;;;;;;;;;;5122238;27;20079;-70
2023/04/21 09:27:09;;;;;;;4.05;1.98;;;;;;;;;;5137283;27;20030;-70
2023/04/21 09:30:01;;;;;;;6.78;1.70;;;;;;;;;;5137632;27;20027;-71
2023/04/21 09:32:47;;;;;;;5.15;1.77;;;;;;;;;;5122851;27;20058;-71
2023/04/21 09:35:36;;;;;;;3.72;1.98;;;;;;;;;;5137290;27;20031;-71
2023/04/21 09:38:22;;;;;;;8.48;2.33;;;;;;;;;;5137010;27;20015;-70
2023/04/21 09:41:07;;;;;;;11.77;2.20;;;;;;;;;;5138098;27;20487;-71
2023/04/21 09:43:53;;;;;;;11.20;2.90;;;;;;;;;;5137603;27;20089;-72
2023/04/21 09:46:42;;;;;;;5.50;2.40;;;;;;;;;;5122990;27;20015;-73
2023/04/21 09:49:33;;;;;;;31.80;4.70;;;;;;;;;;5122910;27;20043;-71
2023/04/21 09:52:19;;;;;;;5.45;2.67;;;;;;;;;;5137258;27;20457;-71
2023/04/21 09:55:09;;;;;;;11.85;2.72;;;;;;;;;;5122257;27;20388;-72
2023/04/21 09:57:59;;;;;;;13.68;3.40;;;;;;;;;;5130465;27;20091;-71
2023/04/21 10:00:45;;;;;;;10.73;2.53;;;;;;;;;;5137348;27;20030;-72
2023/04/21 10:03:31;;;;;;;11.68;3.17;;;;;;;;;;5135603;27;20046;-71
2023/04/21 10:06:16;;;;;;;6.95;2.65;;;;;;;;;;5117236;27;20333;-71
2023/04/21 10:09:03;;;;;;;4.38;2.42;;;;;;;;;;5114997;28;20031;-71
2023/04/21 10:11:48;;;;;;;11.73;2.40;;;;;;;;;;5114338;28;20023;-72
2023/04/21 10:14:34;;;;;;;7.72;2.63;;;;;;;;;;5117338;28;20243;-71
2023/04/21 10:17:26;;;;;;;10.73;2.95;;;;;;;;;;5115953;28;20051;-71
2023/04/21 10:20:14;;;;;;;6.70;2.70;;;;;;;;;;5116309;28;20107;-71
2023/04/21 10:22:59;;;;;;;27.00;3.55;;;;;;;;;;5115957;28;20424;-71
2023/04/21 10:25:47;;;;;;;8.55;3.08;;;;;;;;;;5121236;28;20034;-71
2023/04/21 10:28:48;;;;;;;22.63;6.35;;;;;;;;;;5134073;27;20094;-72
2023/04/21 10:31:37;;;;;;;14.23;3.53;;;;;;;;;;5135684;27;20041;-71
2023/04/21 10:34:37;;;;;;;7.18;3.15;;;;;;;;;;5123051;27;20034;-71
2023/04/21 10:37:22;;;;;;;11.65;3.08;;;;;;;;;;5122492;27;20023;-69
2023/04/21 10:40:26;;;;;;;10.55;3.38;;;;;;;;;;5136353;27;20042;-69
2023/04/21 10:43:30;;;;;;;6.13;2.97;;;;;;;;;;5135480;27;20016;-70
2023/04/21 10:46:32;;;;;;;17.33;3.95;;;;;;;;;;5135887;27;20065;-70
2023/04/21 10:49:22;;;;;;;15.65;3.53;;;;;;;;;;5135899;27;20018;-69
2023/04/21 10:52:09;;;;;;;11.38;4.05;;;;;;;;;;5136033;27;20019;-70
2023/04/21 10:54:55;;;;;;;10.35;3.08;;;;;;;;;;5135656;27;20423;-70
2023/04/21 10:57:42;;;;;;;10.82;3.20;;;;;;;;;;5123218;27;20046;-69
2023/04/21 11:00:28;;;;;;;19.90;4.00;;;;;;;;;;5136231;27;20019;-71
2023/04/21 11:03:14;;;;;;;6.18;2.95;;;;;;;;;;5135839;27;20051;-69
2023/04/21 11:06:12;;;;;;;6.80;3.10;;;;;;;;;;5121107;27;20023;-69
2023/04/21 11:08:58;;;;;;;7.70;3.25;;;;;;;;;;5135760;27;20490;-69
2023/04/21 11:11:43;;;;;;;9.38;3.42;;;;;;;;;;5135484;27;20103;-71
2023/04/21 11:14:29;;;;;;;15.68;3.97;;;;;;;;;;5134998;27;20439;-70
2023/04/21 11:17:16;;;;;;;10.82;3.80;;;;;;;;;;5135624;27;20109;-70
2023/04/21 11:20:03;;;;;;;9.63;3.45;;;;;;;;;;5135616;27;20131;-76
2023/04/21 11:22:51;;;;;;;8.32;3.35;;;;;;;;;;5120745;27;20114;-72
2023/04/21 11:25:36;;;;;;;17.77;4.55;;;;;;;;;;5134365;27;20447;-70
2023/04/21 11:28:22;;;;;;;16.15;3.80;;;;;;;;;;5134976;27;20023;-70
2023/04/21 11:31:07;;;;;;;23.63;4.80;;;;;;;;;;5135967;27;20011;-70
2023/04/21 11:33:54;;;;;;;8.88;3.40;;;;;;;;;;5135604;27;20023;-70
2023/04/21 11:36:40;;;;;;;12.98;3.95;;;;;;;;;;5135002;27;20011;-70
2023/04/21 11:39:26;;;;;;;7.85;2.95;;;;;;;;;;5134846;27;20022;-70
2023/04/21 11:42:19;;;;;;;6.88;3.25;;;;;;;;;;5134031;27;20019;-70
2023/04/21 11:45:05;;;;;;;14.07;3.28;;;;;;;;;;5134603;27;20118;-69
2023/04/21 11:47:50;;;;;;;15.38;3.92;;;;;;;;;;5134142;27;20019;-70
2023/04/21 11:50:37;;;;;;;22.90;4.00;;;;;;;;;;5135433;27;20023;-70
2023/04/21 11:53:23;;;;;;;15.80;4.25;;;;;;;;;;5135580;27;20023;-70
2023/04/21 11:56:10;;;;;;;10.13;3.70;;;;;;;;;;5121632;27;20115;-69
2023/04/21 11:58:56;;;;;;;11.05;3.35;;;;;;;;;;5134377;27;20023;-69
2023/04/21 12:01:45;;;;;;;5.82;3.10;;;;;;;;;;5134491;27;20019;-66
2023/04/21 12:04:31;;;;;;;10.40;3.70;;;;;;;;;;5135188;27;20023;-70
2023/04/21 12:07:21;;;;;;;17.85;4.00;;;;;;;;;;5134163;27;20040;-69
2023/04/21 12:10:11;;;;;;;32.22;4.40;;;;;;;;;;5134589;27;20056;-70
2023/04/21 12:12:57;;;;;;;16.67;4.47;;;;;;;;;;5134839;27;20075;-74
2023/04/21 12:15:43;;;;;;;12.13;3.50;;;;;;;;;;5120578;27;20015;-70
2023/04/21 12:18:30;;;;;;;17.55;4.20;;;;;;;;;;5134682;27;20015;-70
2023/04/21 12:21:15;;;;;;;13.18;3.70;;;;;;;;;;5134620;27;20019;-70
2023/04/21 12:24:03;;;;;;;9.50;3.60;;;;;;;;;;5120495;28;20030;-71
2023/04/21 12:26:48;;;;;;;14.10;3.38;;;;;;;;;;5120059;28;20027;-69
2023/04/21 12:29:36;;;;;;;9.88;3.67;;;;;;;;;;5134537;28;20459;-70
2023/04/21 12:32:23;;;;;;;11.98;3.70;;;;;;;;;;5135052;28;20023;-70
2023/04/21 12:35:08;;;;;;;26.55;4.07;;;;;;;;;;5123889;27;20023;-70
2023/04/21 12:37:57;;;;;;;13.60;3.75;;;;;;;;;;5123646;27;20100;-69
2023/04/21 12:40:42;;;;;;;11.40;3.60;;;;;;;;;;5124607;27;20110;-69
2023/04/21 12:43:28;;;;;;;17.92;3.67;;;;;;;;;;5137783;27;20479;-70
2023/04/21 12:46:16;;;;;;;18.70;4.35;;;;;;;;;;5139270;27;20189;-70
2023/04/21 12:49:02;;;;;;;10.95;3.80;;;;;;;;;;5138456;27;20030;-71
2023/04/21 12:51:48;;;;;;;14.00;3.90;;;;;;;;;;5138202;27;20019;-70
2023/04/21 12:54:34;;;;;;;9.70;3.90;;;;;;;;;;5138937;27;20058;-70
2023/04/21 12:57:20;;;;;;;14.77;3.78;;;;;;;;;;5124157;27;20019;-69
2023/04/21 13:00:07;;;;;;;10.93;3.20;;;;;;;;;;5137908;27;20058;-69
2023/04/21 13:02:52;;;;;;;11.75;4.00;;;;;;;;;;5138125;27;20019;-68
2023/04/21 13:05:38;;;;;;;12.80;3.47;;;;;;;;;;5137336;27;20062;-70
2023/04/21 13:08:24;;;;;;;10.23;3.92;;;;;;;;;;5138426;27;20112;-69
2023/04/21 13:11:10;;;;;;;10.65;3.30;;;;;;;;;;5122369;27;20435;-70
2023/04/21 13:13:56;;;;;;;28.67;4.20;;;;;;;;;;5124627;27;20435;-70
2023/04/21 13:16:42;;;;;;;20.95;3.65;;;;;;;;;;5137999;27;20431;-70
2023/04/21 13:19:28;;;;;;;10.68;3.38;;;;;;;;;;5137237;27;20292;-70
2023/04/21 13:22:13;;;;;;;12.70;3.40;;;;;;;;;;5124722;27;20062;-70
2023/04/21 13:24:59;;;;;;;9.70;3.13;;;;;;;;;;5138183;27;20084;-70
2023/04/21 13:27:45;;;;;;;17.38;4.65;;;;;;;;;;5124124;27;20098;-69
2023/04/21 13:30:31;;;;;;;12.85;3.88;;;;;;;;;;5124413;27;20105;-70
2023/04/21 13:33:17;;;;;;;13.45;3.63;;;;;;;;;;5137003;27;20023;-69
2023/04/21 13:36:03;;;;;;;7.65;2.92;;;;;;;;;;5137563;27;20435;-70
2023/04/21 13:38:49;;;;;;;7.32;3.10;;;;;;;;;;5136837;27;20035;-71
2023/04/21 13:41:35;;;;;;;18.08;4.28;;;;;;;;;;5121905;27;20030;-71
2023/04/21 13:44:21;;;;;;;8.82;3.22;;;;;;;;;;5137019;27;20015;-70
2023/04/21 13:47:07;;;;;;;8.10;3.30;;;;;;;;;;5135957;27;20047;-69
2023/04/21 13:49:53;;;;;;;11.25;3.42;;;;;;;;;;5136753;27;20046;-70
2023/04/21 13:52:39;;;;;;;56.25;6.47;;;;;;;;;;5136636;27;20023;-71
2023/04/21 13:55:25;;;;;;;19.02;4.35;;;;;;;;;;5136802;27;20058;-70
2023/04/21 13:58:10;;;;;;;10.20;3.60;;;;;;;;;;5137113;27;20084;-71
2023/04/21 14:00:56;;;;;;;8.88;4.00;;;;;;;;;;5137278;27;20439;-69
2023/04/21 14:03:41;;;;;;;8.93;3.30;;;;;;;;;;5136989;27;20023;-69
2023/04/21 14:06:27;;;;;;;12.65;4.15;;;;;;;;;;5135816;27;20443;-69
2023/04/21 14:09:13;;;;;;;7.82;3.47;;;;;;;;;;5136609;27;20051;-69
2023/04/21 14:11:58;;;;;;;9.45;3.35;;;;;;;;;;5136090;27;20033;-69
2023/04/21 14:14:44;;;;;;;20.70;5.70;;;;;;;;;;5136418;27;20088;-69
2023/04/21 14:17:30;;;;;;;15.93;3.97;;;;;;;;;;5136655;27;20019;-70
2023/04/21 14:20:16;;;;;;;15.82;3.45;;;;;;;;;;5135799;27;20102;-69
2023/04/21 14:23:01;;;;;;;7.82;2.97;;;;;;;;;;5136005;27;20079;-70
2023/04/21 14:25:47;;;;;;;9.30;2.85;;;;;;;;;;5135290;27;20030;-70
2023/04/21 14:28:33;;;;;;;8.40;3.42;;;;;;;;;;5136349;27;20343;-69
2023/04/21 14:31:18;;;;;;;6.32;3.15;;;;;;;;;;5135989;27;20027;-69
2023/04/21 14:34:04;;;;;;;10.52;3.55;;;;;;;;;;5136019;27;20110;-69
2023/04/21 14:36:50;;;;;;;8.13;3.22;;;;;;;;;;5121500;27;20027;-69
2023/04/21 14:39:35;;;;;;;16.92;4.68;;;;;;;;;;5135276;27;20175;-70
2023/04/21 14:42:21;;;;;;;10.30;3.83;;;;;;;;;;5136597;27;20034;-69
2023/04/21 14:45:07;;;;;;;9.80;3.45;;;;;;;;;;5136521;27;20442;-70
2023/04/21 14:47:52;;;;;;;20.15;4.43;;;;;;;;;;5120212;27;20323;-69
2023/04/21 14:50:39;;;;;;;17.95;3.92;;;;;;;;;;5135275;27;20431;-69
2023/04/21 14:53:24;;;;;;;19.75;3.90;;;;;;;;;;5141381;27;20088;-69
2023/04/21 14:56:10;;;;;;;21.92;4.65;;;;;;;;;;5136413;27;20431;-69
2023/04/21 14:58:55;;;;;;;11.13;4.50;;;;;;;;;;5135646;27;20045;-70
2023/04/21 15:01:41;;;;;;;16.10;3.65;;;;;;;;;;5136478;27;20463;-70
2023/04/21 15:04:27;;;;;;;8.98;3.63;;;;;;;;;;5136288;27;20025;-68
2023/04/21 15:07:12;;;;;;;11.73;3.35;;;;;;;;;;5134934;27;20420;-70
2023/04/21 15:09:58;;;;;;;9.13;3.30;;;;;;;;;;5135303;27;20043;-68
2023/04/21 15:12:44;;;;;;;10.02;3.35;;;;;;;;;;5121085;27;20027;-71
2023/04/21 15:15:30;;;;;;;23.63;4.32;;;;;;;;;;5120803;27;20026;-69
2023/04/21 15:18:15;;;;;;;17.92;3.35;;;;;;;;;;5136076;27;20015;-70
2023/04/21 15:21:01;;;;;;;11.95;3.30;;;;;;;;;;5135004;27;20015;-70
2023/04/21 15:23:46;;;;;;;7.72;3.28;;;;;;;;;;5120921;27;20027;-69
2023/04/21 15:26:32;;;;;;;11.30;3.40;;;;;;;;;;5119952;27;20015;-69
2023/04/21 15:29:18;;;;;;;8.35;3.38;;;;;;;;;;5134783;27;20326;-70
2023/04/21 15:32:04;;;;;;;8.27;3.28;;;;;;;;;;5135696;27;20061;-69
2023/04/21 15:34:49;;;;;;;8.20;3.33;;;;;;;;;;5134565;27;20019;-69
2023/04/21 15:37:35;;;;;;;10.82;3.83;;;;;;;;;;5134899;27;20023;-69
2023/04/21 15:40:20;;;;;;;7.13;3.28;;;;;;;;;;5135961;27;20034;-69
2023/04/21 15:43:06;;;;;;;8.60;3.53;;;;;;;;;;5134761;27;20023;-70
2023/04/21 15:45:51;;;;;;;13.27;3.35;;;;;;;;;;5134243;27;20023;-71
2023/04/21 15:48:41;;;;;;;8.27;3.72;;;;;;;;;;5121214;27;20011;-70
2023/04/21 15:51:26;;;;;;;14.60;3.83;;;;;;;;;;5135001;27;20340;-69
2023/04/21 15:54:12;;;;;;;14.88;3.65;;;;;;;;;;5134560;27;20031;-70
2023/04/21 15:56:58;;;;;;;9.65;3.35;;;;;;;;;;5134858;27;20019;-70
2023/04/21 15:59:43;;;;;;;12.90;3.60;;;;;;;;;;5134806;27;20019;-69
2023/04/21 16:02:29;;;;;;;13.15;3.60;;;;;;;;;;5134347;27;20475;-70
2023/04/21 16:05:15;;;;;;;13.95;4.57;;;;;;;;;;5135151;27;20030;-70
2023/04/21 16:08:01;;;;;;;9.25;4.00;;;;;;;;;;5134461;27;20459;-70
2023/04/21 16:10:46;;;;;;;6.88;3.20;;;;;;;;;;5134748;27;20029;-70
2023/04/21 16:13:33;;;;;;;11.07;3.85;;;;;;;;;;5134656;27;20043;-69
2023/04/21 16:16:18;;;;;;;13.68;4.43;;;;;;;;;;5134685;27;20087;-72
2023/04/21 16:19:04;;;;;;;6.43;3.30;;;;;;;;;;5134364;27;20024;-71
2023/04/21 16:21:49;;;;;;;13.80;4.97;;;;;;;;;;5135696;27;20107;-72
2023/04/21 16:24:35;;;;;;;13.27;4.90;;;;;;;;;;5119797;28;20033;-70